Time;durP1;ratioP1;P1;durP2;ratioP2;P2;SDS_P1;SDS_P2;PMS_P1;PMS_P2;Temp;Humidity;BMP_temperature;BMP_pressure;BME280_temperature;BME280_humidity;BME280_pressure;Samples;Min_cycle;Max_cycle;Signal;HPM_P1;HPM_P2
2022/04/19 00:00:25;;;;;;;;;;;;;;;5.13;56.91;100185.09;84586;1333;22855;-74
2022/04/19 00:02:40;;;;;;;;;;;;;;;5.14;56.86;100183.17;84507;1333;22829;-74
2022/04/19 00:04:45;;;;;;;;;;;;;;;5.15;57.65;100183.48;84547;1335;25330;-75
2022/04/19 00:06:53;;;;;;;;;;;;;;;5.12;57.89;100182.16;84542;1332;22584;-74
2022/04/19 00:09:00;;;;;;;;;;;;;;;5.10;58.25;100179.60;83869;1334;1003150;-74
2022/04/19 00:11:08;;;;;;;;;;;;;;;5.07;58.16;100181.90;84574;1334;22706;-73
2022/04/19 00:13:16;;;;;;;;;;;;;;;5.04;58.11;100179.21;84590;1334;23953;-74
2022/04/19 00:15:27;;;;;;;;;;;;;;;5.01;58.33;100177.70;84530;1332;22771;-75
2022/04/19 00:17:34;;;;;;;;;;;;;;;4.97;58.89;100173.27;84533;1331;22654;-81
2022/04/19 00:19:39;;;;;;;;;;;;;;;4.94;58.96;100176.62;84573;1332;22654;-81
2022/04/19 00:21:43;;;;;;;;;;;;;;;4.91;59.04;100174.75;84592;1335;22563;-74
2022/04/19 00:23:51;;;;;;;;;;;;;;;4.88;59.08;100174.64;84582;1330;22683;-74
2022/04/19 00:25:59;;;;;;;;;;;;;;;4.87;59.08;100170.87;84588;1331;22604;-75
2022/04/19 00:28:07;;;;;;;;;;;;;;;4.86;59.46;100173.46;84580;1332;22683;-81
2022/04/19 00:30:13;;;;;;;;;;;;;;;4.86;59.69;100173.30;84511;1332;23977;-81
2022/04/19 00:32:17;;;;;;;;;;;;;;;4.85;59.74;100175.75;84603;1335;22686;-81
2022/04/19 00:34:22;;;;;;;;;;;;;;;4.85;59.32;100175.23;84559;1333;22570;-82
2022/04/19 00:36:28;;;;;;;;;;;;;;;4.85;59.88;100175.40;84580;1332;23892;-82
2022/04/19 00:38:33;;;;;;;;;;;;;;;4.82;60.02;100173.73;84597;1332;22595;-75
2022/04/19 00:40:38;;;;;;;;;;;;;;;4.80;60.26;100173.24;84566;1332;22591;-75
2022/04/19 00:42:46;;;;;;;;;;;;;;;4.76;60.75;100170.02;84611;1332;22621;-77
2022/04/19 00:44:50;;;;;;;;;;;;;;;4.70;60.97;100172.20;84620;1330;22635;-75
2022/04/19 00:46:55;;;;;;;;;;;;;;;4.67;61.11;100169.14;84649;1331;22891;-73
2022/04/19 00:49:00;;;;;;;;;;;;;;;4.63;61.58;100171.45;84563;1328;22627;-74
2022/04/19 00:51:05;;;;;;;;;;;;;;;4.59;61.44;100167.37;84530;1332;22571;-74
2022/04/19 00:53:11;;;;;;;;;;;;;;;4.56;62.09;100167.77;83900;1327;1003592;-80
2022/04/19 00:55:16;;;;;;;;;;;;;;;4.51;62.37;100163.69;84643;1330;23090;-80
2022/04/19 00:57:22;;;;;;;;;;;;;;;4.47;63.02;100159.11;84521;1333;22850;-75
2022/04/19 00:59:31;;;;;;;;;;;;;;;4.41;63.92;100161.80;84642;1331;22679;-74
2022/04/19 01:01:39;;;;;;;;;;;;;;;4.34;63.97;100161.39;84593;1332;22787;-76
2022/04/19 01:03:43;;;;;;;;;;;;;;;4.27;64.72;100161.86;84629;1331;23793;-74
2022/04/19 01:05:53;;;;;;;;;;;;;;;4.20;64.06;100157.13;84542;1332;22583;-74
2022/04/19 01:07:58;;;;;;;;;;;;;;;4.16;64.33;100153.91;84606;1330;22606;-81
2022/04/19 01:10:03;;;;;;;;;;;;;;;4.12;64.39;100152.23;84610;1333;23050;-81
2022/04/19 01:14:35;;;;;;;;;;;;;;;4.08;65.02;100147.11;84614;1329;22869;-80
2022/04/19 01:16:43;;;;;;;;;;;;;;;4.07;65.14;100145.75;84621;1329;22583;-79
2022/04/19 01:18:48;;;;;;;;;;;;;;;4.06;66.09;100142.49;84652;1333;25254;-82
2022/04/19 01:20:52;;;;;;;;;;;;;;;4.03;65.84;100142.54;84617;1330;24118;-81
2022/04/19 01:22:57;;;;;;;;;;;;;;;4.00;66.07;100144.48;84670;1332;22600;-81
2022/04/19 01:25:02;;;;;;;;;;;;;;;3.96;66.21;100142.48;84630;1329;22708;-80
2022/04/19 01:27:09;;;;;;;;;;;;;;;3.93;66.66;100139.75;84643;1333;22631;-81
2022/04/19 01:29:13;;;;;;;;;;;;;;;3.88;66.80;100139.64;84664;1330;22737;-81
2022/04/19 01:31:21;;;;;;;;;;;;;;;3.83;66.80;100136.79;84630;1331;22596;-81
2022/04/19 01:33:26;;;;;;;;;;;;;;;3.78;66.94;100137.55;84631;1330;22567;-75
2022/04/19 01:35:31;;;;;;;;;;;;;;;3.73;67.05;100135.89;84642;1327;22650;-74
2022/04/19 01:37:45;;;;;;;;;;;;;;;3.71;67.43;100133.85;84568;1335;22784;-73
2022/04/19 01:42:31;;;;;;;;;;;;;;;3.66;67.97;100129.10;84379;1337;24409;-74
2022/04/19 01:44:38;;;;;;;;;;;;;;;3.64;68.25;100129.62;84371;1332;22887;-75
2022/04/19 01:46:45;;;;;;;;;;;;;;;3.64;68.27;100127.23;84329;1335;22591;-75
2022/04/19 01:48:54;;;;;;;;;;;;;;;3.64;68.72;100127.39;84628;1330;22595;-76
2022/04/19 01:51:02;;;;;;;;;;;;;;;3.65;68.68;100131.19;84641;1330;22585;-74
2022/04/19 01:53:10;;;;;;;;;;;;;;;3.65;69.10;100128.25;84637;1331;22894;-81
2022/04/19 01:55:15;;;;;;;;;;;;;;;3.66;69.38;100126.86;84661;1330;24263;-80
2022/04/19 01:57:20;;;;;;;;;;;;;;;3.65;69.29;100126.70;84630;1330;22692;-80
2022/04/19 01:59:24;;;;;;;;;;;;;;;3.65;69.37;100131.02;84636;1327;22900;-80
2022/04/19 02:01:32;;;;;;;;;;;;;;;3.65;69.48;100133.94;84620;1329;24276;-80
2022/04/19 02:03:40;;;;;;;;;;;;;;;3.66;69.48;100129.63;84614;1329;22574;-81
2022/04/19 02:05:44;;;;;;;;;;;;;;;3.65;69.60;100129.11;84649;1333;22566;-80
2022/04/19 02:07:49;;;;;;;;;;;;;;;3.67;69.47;100127.18;84624;1330;22570;-74
2022/04/19 02:09:54;;;;;;;;;;;;;;;3.69;69.86;100126.29;83843;1335;1002911;-75
2022/04/19 02:11:59;;;;;;;;;;;;;;;3.69;69.84;100124.73;84597;1332;22780;-81
2022/04/19 02:14:04;;;;;;;;;;;;;;;3.68;70.02;100121.12;84562;1333;22856;-80
2022/04/19 02:16:09;;;;;;;;;;;;;;;3.68;70.21;100121.48;84639;1330;25487;-81
2022/04/19 02:18:16;;;;;;;;;;;;;;;3.68;69.75;100121.98;84563;1333;22576;-74
2022/04/19 02:20:25;;;;;;;;;;;;;;;3.70;69.90;100120.59;84641;1332;22563;-74
2022/04/19 02:22:30;;;;;;;;;;;;;;;3.71;69.83;100123.52;84583;1333;22576;-80
2022/04/19 02:24:38;;;;;;;;;;;;;;;3.69;69.82;100125.95;84584;1330;22597;-80
2022/04/19 02:26:42;;;;;;;;;;;;;;;3.67;69.38;100120.45;84685;1328;22780;-81
2022/04/19 02:28:50;;;;;;;;;;;;;;;3.67;69.90;100122.88;84545;1330;23040;-82
2022/04/19 02:30:58;;;;;;;;;;;;;;;3.65;69.43;100121.86;84654;1329;22623;-81
2022/04/19 02:33:02;;;;;;;;;;;;;;;3.64;69.38;100122.91;84624;1331;22575;-74
2022/04/19 02:35:10;;;;;;;;;;;;;;;3.62;69.70;100118.78;84609;1330;25248;-74
2022/04/19 02:37:15;;;;;;;;;;;;;;;3.61;69.56;100118.98;84523;1332;22591;-80
2022/04/19 02:39:20;;;;;;;;;;;;;;;3.61;69.82;100120.73;84624;1333;22829;-77
2022/04/19 02:41:28;;;;;;;;;;;;;;;3.58;69.58;100121.42;84630;1328;22852;-81
2022/04/19 02:43:32;;;;;;;;;;;;;;;3.59;69.75;100117.96;84576;1332;22582;-74
2022/04/19 02:45:37;;;;;;;;;;;;;;;3.59;70.00;100119.69;84618;1330;25327;-75
2022/04/19 02:47:45;;;;;;;;;;;;;;;3.56;69.81;100117.50;84646;1330;23943;-74
2022/04/19 02:49:49;;;;;;;;;;;;;;;3.55;69.59;100119.77;84649;1330;22680;-74
2022/04/19 02:51:55;;;;;;;;;;;;;;;3.54;69.72;100117.52;84628;1330;25545;-74
2022/04/19 02:54:02;;;;;;;;;;;;;;;3.51;69.68;100117.91;84638;1329;24349;-74
2022/04/19 02:56:07;;;;;;;;;;;;;;;3.48;69.98;100116.74;84639;1328;22704;-75
2022/04/19 02:58:11;;;;;;;;;;;;;;;3.43;69.81;100116.62;84586;1332;24393;-80
2022/04/19 03:00:20;;;;;;;;;;;;;;;3.41;69.82;100116.15;84643;1330;22682;-81
2022/04/19 03:02:27;;;;;;;;;;;;;;;3.40;70.21;100115.81;84568;1335;25318;-73
2022/04/19 03:04:32;;;;;;;;;;;;;;;3.40;70.42;100116.50;84617;1327;22621;-75
2022/04/19 03:06:39;;;;;;;;;;;;;;;3.40;70.32;100115.64;84573;1327;22635;-77
2022/04/19 03:08:44;;;;;;;;;;;;;;;3.39;70.68;100117.54;84622;1327;22698;-74
2022/04/19 03:10:49;;;;;;;;;;;;;;;3.37;70.64;100119.98;84627;1327;22583;-74
2022/04/19 03:12:54;;;;;;;;;;;;;;;3.36;70.33;100119.65;84549;1332;22586;-80
2022/04/19 03:14:58;;;;;;;;;;;;;;;3.37;70.33;100120.69;84621;1330;22607;-80
2022/04/19 03:17:06;;;;;;;;;;;;;;;3.38;70.96;100123.42;84600;1330;24376;-74
2022/04/19 03:19:13;;;;;;;;;;;;;;;3.35;71.00;100125.70;84603;1330;22655;-74
2022/04/19 03:21:18;;;;;;;;;;;;;;;3.34;70.57;100124.84;84643;1329;22568;-74
2022/04/19 03:28:11;;;;;;;;;;;;;;;3.32;70.87;100135.56;84505;1332;22784;-74
2022/04/19 03:30:16;;;;;;;;;;;;;;;3.31;71.10;100133.16;84615;1328;22572;-73
2022/04/19 03:32:20;;;;;;;;;;;;;;;3.30;70.79;100135.24;84536;1332;22633;-79
2022/04/19 03:34:25;;;;;;;;;;;;;;;3.29;70.63;100134.55;84587;1330;23039;-80
2022/04/19 03:36:29;;;;;;;;;;;;;;;3.27;70.46;100138.21;84605;1330;24239;-80
2022/04/19 03:38:34;;;;;;;;;;;;;;;3.26;70.00;100136.52;84597;1329;22642;-74
2022/04/19 03:40:39;;;;;;;;;;;;;;;3.25;70.32;100139.09;84631;1327;24245;-74
2022/04/19 03:42:43;;;;;;;;;;;;;;;3.25;69.88;100137.89;84609;1329;22819;-73
2022/04/19 03:44:51;;;;;;;;;;;;;;;3.27;69.95;100137.88;84631;1329;24247;-74
2022/04/19 03:47:09;;;;;;;;;;;;;;;3.30;70.22;100137.31;84604;1329;22606;-74
2022/04/19 03:49:13;;;;;;;;;;;;;;;3.31;70.56;100143.17;84612;1330;24205;-74
2022/04/19 03:51:18;;;;;;;;;;;;;;;3.30;69.87;100143.69;84621;1330;22567;-74
2022/04/19 03:53:26;;;;;;;;;;;;;;;3.32;69.81;100144.55;84619;1330;22575;-81
2022/04/19 03:55:33;;;;;;;;;;;;;;;3.33;70.05;100145.03;84503;1334;22574;-80
2022/04/19 03:57:38;;;;;;;;;;;;;;;3.35;69.95;100146.73;84613;1330;22701;-74
2022/04/19 03:59:43;;;;;;;;;;;;;;;3.36;69.82;100143.63;84628;1333;25960;-74
2022/04/19 04:01:48;;;;;;;;;;;;;;;3.36;69.57;100143.63;84581;1331;23852;-80
2022/04/19 04:03:52;;;;;;;;;;;;;;;3.37;69.12;100141.20;84564;1333;22581;-80
2022/04/19 04:05:57;;;;;;;;;;;;;;;3.39;69.13;100143.07;84615;1328;23035;-80
2022/04/19 04:08:06;;;;;;;;;;;;;;;3.41;69.06;100146.67;84583;1331;22595;-74
2022/04/19 04:10:12;;;;;;;;;;;;;;;3.40;69.03;100148.74;84599;1330;22878;-73
2022/04/19 04:12:17;;;;;;;;;;;;;;;3.38;69.23;100154.30;84650;1329;22651;-80
2022/04/19 04:14:21;;;;;;;;;;;;;;;3.34;68.89;100154.50;84553;1328;24300;-81
2022/04/19 04:16:26;;;;;;;;;;;;;;;3.34;68.98;100155.02;84605;1329;22844;-80
2022/04/19 04:18:31;;;;;;;;;;;;;;;3.33;69.66;100160.03;84606;1327;22686;-73
2022/04/19 04:20:36;;;;;;;;;;;;;;;3.29;69.91;100161.98;84638;1330;22719;-74
2022/04/19 04:22:41;;;;;;;;;;;;;;;3.25;70.08;100162.02;84630;1330;22682;-81
2022/04/19 04:24:49;;;;;;;;;;;;;;;3.21;70.44;100162.77;84514;1328;22912;-80
2022/04/19 04:26:53;;;;;;;;;;;;;;;3.19;70.25;100167.26;84630;1331;22650;-81
2022/04/19 04:28:57;;;;;;;;;;;;;;;3.19;70.55;100171.91;84629;1330;24245;-79
2022/04/19 04:31:06;;;;;;;;;;;;;;;3.16;71.04;100175.58;84606;1330;26013;-80
2022/04/19 04:33:11;;;;;;;;;;;;;;;3.13;71.16;100182.67;83197;1330;1003015;-80
2022/04/19 04:35:19;;;;;;;;;;;;;;;3.13;71.18;100182.84;84603;1331;22577;-81
2022/04/19 04:37:24;;;;;;;;;;;;;;;3.13;71.04;100186.46;84640;1327;22612;-73
2022/04/19 04:39:32;;;;;;;;;;;;;;;3.14;71.45;100182.98;84620;1331;24294;-73
2022/04/19 04:41:45;;;;;;;;;;;;;;;3.18;71.13;100185.55;84628;1329;22581;-77
2022/04/19 04:43:49;;;;;;;;;;;;;;;3.23;70.83;100188.42;84614;1329;26480;-80
2022/04/19 04:50:36;;;;;;;;;;;;;;;3.28;71.49;100191.64;84520;1330;22813;-74
2022/04/19 04:52:43;;;;;;;;;;;;;;;3.25;71.21;100191.33;84616;1329;22581;-80
2022/04/19 04:54:51;;;;;;;;;;;;;;;3.24;71.67;100195.65;84615;1328;23062;-79
2022/04/19 04:57:01;;;;;;;;;;;;;;;3.21;71.38;100198.63;84601;1330;22710;-74
2022/04/19 04:59:09;;;;;;;;;;;;;;;3.20;71.41;100199.14;84582;1332;22595;-74
2022/04/19 05:01:17;;;;;;;;;;;;;;;3.19;71.35;100198.98;84497;1332;22655;-74
2022/04/19 05:03:22;;;;;;;;;;;;;;;3.19;71.56;100203.45;84473;1329;251690;-73
2022/04/19 05:05:31;;;;;;;;;;;;;;;3.19;71.36;100200.18;84612;1329;22582;-73
2022/04/19 05:07:38;;;;;;;;;;;;;;;3.18;71.99;100207.09;84636;1331;22576;-72
2022/04/19 05:09:46;;;;;;;;;;;;;;;3.15;71.94;100205.74;84597;1329;22599;-73
2022/04/19 05:11:55;;;;;;;;;;;;;;;3.13;71.64;100207.49;84604;1330;22735;-83
2022/04/19 05:14:04;;;;;;;;;;;;;;;3.12;71.94;100207.84;84592;1330;22736;-74
2022/04/19 05:16:09;;;;;;;;;;;;;;;3.09;72.16;100210.27;84598;1327;22571;-73
2022/04/19 05:18:14;;;;;;;;;;;;;;;3.08;71.65;100209.27;84577;1330;24395;-74
2022/04/19 05:20:22;;;;;;;;;;;;;;;3.10;71.57;100214.41;84517;1332;22849;-74
2022/04/19 05:22:27;;;;;;;;;;;;;;;3.13;71.71;100214.90;84556;1330;22589;-73
2022/04/19 05:24:33;;;;;;;;;;;;;;;3.14;71.71;100217.48;84628;1329;23922;-73
2022/04/19 05:26:38;;;;;;;;;;;;;;;3.16;71.23;100217.10;84602;1330;22849;-74
2022/04/19 05:28:46;;;;;;;;;;;;;;;3.22;71.34;100216.19;84560;1328;24371;-73
2022/04/19 05:30:52;;;;;;;;;;;;;;;3.24;71.33;100225.64;84546;1327;22579;-73
2022/04/19 05:33:00;;;;;;;;;;;;;;;3.26;71.20;100230.81;84627;1330;22566;-73
2022/04/19 05:35:09;;;;;;;;;;;;;;;3.25;70.88;100231.15;84554;1332;25904;-74
2022/04/19 05:37:17;;;;;;;;;;;;;;;3.23;71.10;100232.55;84633;1333;22718;-80
2022/04/19 05:39:23;;;;;;;;;;;;;;;3.19;71.20;100238.80;84518;1333;22596;-80
2022/04/19 05:41:33;;;;;;;;;;;;;;;3.16;71.19;100239.70;84493;1332;23929;-80
2022/04/19 05:43:47;;;;;;;;;;;;;;;3.15;71.26;100244.70;83178;1332;1003888;-73
2022/04/19 05:45:53;;;;;;;;;;;;;;;3.13;71.33;100247.65;84478;1330;23050;-74
2022/04/19 05:47:57;;;;;;;;;;;;;;;3.09;71.05;100246.30;84528;1335;22649;-80
2022/04/19 05:50:11;;;;;;;;;;;;;;;3.09;71.07;100248.02;84615;1330;25270;-80
2022/04/19 05:52:16;;;;;;;;;;;;;;;3.10;71.23;100252.16;84654;1329;22594;-80
2022/04/19 05:54:23;;;;;;;;;;;;;;;3.15;70.77;100256.08;84549;1331;24273;-81
2022/04/19 05:56:28;;;;;;;;;;;;;;;3.19;70.79;100258.11;84545;1325;22565;-82
2022/04/19 05:58:39;;;;;;;;;;;;;;;3.18;70.76;100260.52;84587;1332;22729;-81
2022/04/19 06:00:47;;;;;;;;;;;;;;;3.14;70.75;100259.36;84561;1332;22694;-81
2022/04/19 06:05:16;;;;;;;;;;;;;;;3.17;70.66;100261.41;84604;1330;25404;-74
2022/04/19 06:07:24;;;;;;;;;;;;;;;3.20;70.37;100260.67;84609;1330;23947;-80
2022/04/19 06:09:29;;;;;;;;;;;;;;;3.29;70.26;100265.42;84545;1329;24173;-82
2022/04/19 06:11:34;;;;;;;;;;;;;;;3.38;70.21;100268.95;84620;1329;22669;-81
2022/04/19 06:13:41;;;;;;;;;;;;;;;3.44;70.29;100271.98;84641;1330;22597;-81
2022/04/19 06:15:45;;;;;;;;;;;;;;;3.45;70.18;100272.84;84532;1333;22641;-74
2022/04/19 06:17:56;;;;;;;;;;;;;;;3.45;70.07;100278.88;84573;1327;22594;-81
2022/04/19 06:20:03;;;;;;;;;;;;;;;3.41;70.01;100276.85;84633;1330;22584;-81
2022/04/19 06:22:08;;;;;;;;;;;;;;;3.40;69.72;100280.14;84577;1331;22589;-81
2022/04/19 06:24:17;;;;;;;;;;;;;;;3.43;69.75;100280.46;84621;1328;24253;-82
2022/04/19 06:26:22;;;;;;;;;;;;;;;3.44;69.75;100279.74;84564;1332;22601;-81
2022/04/19 06:28:30;;;;;;;;;;;;;;;3.45;69.84;100280.95;84625;1331;22567;-81
2022/04/19 06:30:38;;;;;;;;;;;;;;;3.43;69.57;100280.80;84581;1332;25509;-73
2022/04/19 06:32:45;;;;;;;;;;;;;;;3.43;69.69;100287.00;84563;1326;22826;-81
2022/04/19 06:34:53;;;;;;;;;;;;;;;3.43;69.52;100286.66;84531;1333;24248;-81
2022/04/19 06:36:59;;;;;;;;;;;;;;;3.46;69.57;100288.52;84629;1329;25471;-80
2022/04/19 06:39:04;;;;;;;;;;;;;;;3.51;69.26;100287.96;84613;1330;22562;-81
2022/04/19 06:41:13;;;;;;;;;;;;;;;3.56;69.45;100290.66;84617;1327;22598;-81
2022/04/19 06:43:21;;;;;;;;;;;;;;;3.60;69.22;100295.95;84585;1330;22573;-73
2022/04/19 06:45:27;;;;;;;;;;;;;;;3.63;69.32;100301.96;84596;1330;24002;-73
2022/04/19 06:47:35;;;;;;;;;;;;;;;3.61;69.15;100302.70;84618;1329;24245;-74
2022/04/19 06:49:41;;;;;;;;;;;;;;;3.58;69.28;100306.85;84544;1333;25480;-74
2022/04/19 06:51:49;;;;;;;;;;;;;;;3.59;69.11;100310.11;84552;1334;22639;-81
2022/04/19 06:53:54;;;;;;;;;;;;;;;3.63;68.98;100314.39;84624;1330;26592;-81
2022/04/19 06:56:04;;;;;;;;;;;;;;;3.68;68.99;100319.69;84643;1329;23726;-80
2022/04/19 06:58:09;;;;;;;;;;;;;;;3.73;68.67;100317.23;84617;1330;22589;-72
2022/04/19 07:00:16;;;;;;;;;;;;;;;3.81;68.64;100316.78;84475;1332;23010;-73
2022/04/19 07:02:21;;;;;;;;;;;;;;;3.90;68.54;100319.44;84623;1329;22942;-80
2022/04/19 07:04:25;;;;;;;;;;;;;;;4.01;68.34;100323.11;84550;1332;24268;-80
2022/04/19 07:06:30;;;;;;;;;;;;;;;4.08;67.93;100323.54;84609;1330;23981;-80
2022/04/19 07:08:36;;;;;;;;;;;;;;;4.14;67.83;100333.48;84525;1334;22585;-74
2022/04/19 07:10:44;;;;;;;;;;;;;;;4.17;67.34;100332.23;84575;1331;22583;-74
2022/04/19 07:12:52;;;;;;;;;;;;;;;4.18;67.34;100334.28;84582;1333;24209;-81
2022/04/19 07:15:00;;;;;;;;;;;;;;;4.16;67.00;100335.02;84604;1329;22582;-80
2022/04/19 07:17:05;;;;;;;;;;;;;;;4.20;67.08;100335.83;84605;1330;22577;-75
2022/04/19 07:19:11;;;;;;;;;;;;;;;4.27;66.99;100338.48;84606;1330;23485;-75
2022/04/19 07:28:35;;;;;;;;;;;;;;;4.36;66.25;100347.02;84577;1332;22579;-79
2022/04/19 07:30:39;;;;;;;;;;;;;;;4.41;66.17;100350.92;84604;1332;22595;-80
2022/04/19 07:32:44;;;;;;;;;;;;;;;4.41;65.81;100351.27;84635;1329;22628;-81
2022/04/19 07:34:49;;;;;;;;;;;;;;;4.43;65.83;100355.90;84619;1330;23956;-80
2022/04/19 07:36:56;;;;;;;;;;;;;;;4.50;65.55;100355.13;84631;1330;25005;-79
2022/04/19 07:39:04;;;;;;;;;;;;;;;4.55;65.59;100354.36;84550;1332;22587;-73
2022/04/19 07:41:10;;;;;;;;;;;;;;;4.63;65.40;100356.67;84585;1330;22619;-75
2022/04/19 07:43:29;;;;;;;;;;;;;;;4.69;65.04;100358.15;84564;1327;22586;-77
2022/04/19 07:45:40;;;;;;;;;;;;;;;4.74;64.80;100363.42;84460;1333;22589;-73
2022/04/19 07:47:47;;;;;;;;;;;;;;;4.79;64.55;100362.16;84610;1329;22536;-77
2022/04/19 07:49:57;;;;;;;;;;;;;;;4.82;64.48;100360.37;84615;1327;22618;-80
2022/04/19 07:52:06;;;;;;;;;;;;;;;4.89;64.09;100362.34;84652;1329;22598;-74
2022/04/19 07:54:11;;;;;;;;;;;;;;;4.98;64.23;100364.46;84528;1333;23358;-74
2022/04/19 07:56:17;;;;;;;;;;;;;;;5.10;63.63;100369.46;84597;1330;22590;-80
2022/04/19 07:58:22;;;;;;;;;;;;;;;5.15;63.39;100374.05;84556;1331;22576;-80
2022/04/19 08:00:27;;;;;;;;;;;;;;;5.19;62.85;100377.97;84615;1328;22647;-80
2022/04/19 08:02:35;;;;;;;;;;;;;;;5.17;62.60;100378.50;84606;1327;24246;-80
2022/04/19 08:04:40;;;;;;;;;;;;;;;5.17;62.68;100383.35;84617;1330;25401;-81
2022/04/19 08:06:45;;;;;;;;;;;;;;;5.15;62.25;100380.79;84571;1330;22606;-74
2022/04/19 08:08:55;;;;;;;;;;;;;;;5.08;62.11;100383.48;84565;1333;24279;-74
2022/04/19 08:11:04;;;;;;;;;;;;;;;4.94;62.24;100385.79;84489;1332;22666;-76
2022/04/19 08:13:14;;;;;;;;;;;;;;;4.94;62.58;100382.52;84608;1330;24305;-80
2022/04/19 08:15:21;;;;;;;;;;;;;;;4.96;62.75;100387.64;84631;1330;22589;-81
2022/04/19 08:17:29;;;;;;;;;;;;;;;4.97;62.59;100390.23;84603;1330;22624;-74
2022/04/19 08:19:34;;;;;;;;;;;;;;;4.93;62.52;100394.09;84546;1332;22693;-73
2022/04/19 08:21:38;;;;;;;;;;;;;;;4.91;62.58;100397.58;83206;1328;1004219;-76
2022/04/19 08:23:47;;;;;;;;;;;;;;;4.92;62.64;100401.88;84600;1330;22634;-81
2022/04/19 08:25:54;;;;;;;;;;;;;;;4.91;62.16;100401.73;84634;1328;22631;-81
2022/04/19 08:27:59;;;;;;;;;;;;;;;4.87;62.32;100401.60;84584;1332;22594;-74
2022/04/19 08:30:12;;;;;;;;;;;;;;;4.88;62.59;100402.81;84600;1333;23950;-74
2022/04/19 08:32:17;;;;;;;;;;;;;;;4.89;62.66;100402.96;84620;1333;22621;-81
2022/04/19 08:34:22;;;;;;;;;;;;;;;4.92;62.58;100407.59;84605;1333;22607;-78
2022/04/19 08:36:28;;;;;;;;;;;;;;;4.96;62.39;100408.91;84489;1333;24636;-74
2022/04/19 08:38:33;;;;;;;;;;;;;;;4.99;62.44;100410.27;82485;1328;1003352;-80
2022/04/19 08:40:38;;;;;;;;;;;;;;;5.05;62.32;100408.09;84609;1327;23165;-79
2022/04/19 08:42:46;;;;;;;;;;;;;;;5.10;62.31;100405.06;84640;1329;25345;-81
2022/04/19 08:44:51;;;;;;;;;;;;;;;5.22;62.39;100402.64;84565;1331;22570;-79
2022/04/19 08:46:59;;;;;;;;;;;;;;;5.34;62.28;100407.12;84565;1332;22588;-78
2022/04/19 08:49:05;;;;;;;;;;;;;;;5.50;61.89;100407.21;84554;1333;22718;-74
2022/04/19 08:51:10;;;;;;;;;;;;;;;5.65;61.57;100402.11;84588;1332;23907;-74
2022/04/19 08:58:06;;;;;;;;;;;;;;;6.05;60.46;100406.44;84575;1333;24356;-83
2022/04/19 09:00:15;;;;;;;;;;;;;;;6.08;59.80;100405.17;84661;1331;22572;-84
2022/04/19 09:02:25;;;;;;;;;;;;;;;6.13;59.81;100409.57;84660;1330;26498;-81
2022/04/19 09:04:30;;;;;;;;;;;;;;;6.18;59.72;100408.27;84621;1330;22596;-82
2022/04/19 09:06:51;;;;;;;;;;;;;;;6.19;59.27;100409.10;84627;1327;22572;-75
2022/04/19 09:09:11;;;;;;;;;;;;;;;6.19;59.34;100411.19;84651;1329;24273;-72
2022/04/19 09:11:16;;;;;;;;;;;;;;;6.17;59.14;100414.70;84647;1329;22678;-74
2022/04/19 09:13:23;;;;;;;;;;;;;;;6.16;59.49;100414.37;84689;1333;23872;-75
2022/04/19 09:15:33;;;;;;;;;;;;;;;6.19;58.87;100414.14;84627;1330;24318;-74
2022/04/19 09:17:40;;;;;;;;;;;;;;;6.20;58.37;100416.70;84671;1331;22576;-83
2022/04/19 09:19:45;;;;;;;;;;;;;;;6.15;58.63;100416.80;84671;1327;22606;-81
2022/04/19 09:21:53;;;;;;;;;;;;;;;6.11;58.78;100417.24;84652;1332;25332;-74
2022/04/19 09:23:58;;;;;;;;;;;;;;;6.13;58.61;100419.10;84642;1330;22722;-74
2022/04/19 09:26:09;;;;;;;;;;;;;;;6.20;58.73;100420.88;84654;1329;22648;-80
2022/04/19 09:28:19;;;;;;;;;;;;;;;6.30;58.38;100416.70;84681;1333;26521;-80
2022/04/19 09:30:30;;;;;;;;;;;;;;;6.43;58.34;100419.21;83868;1335;1003587;-78
2022/04/19 09:32:47;;;;;;;;;;;;;;;6.56;57.96;100417.38;84689;1328;24278;-79
2022/04/19 09:34:57;;;;;;;;;;;;;;;6.65;57.28;100419.45;84603;1331;22583;-80
2022/04/19 09:37:10;;;;;;;;;;;;;;;6.65;57.24;100420.30;84623;1330;22581;-74
2022/04/19 09:39:27;;;;;;;;;;;;;;;6.71;56.77;100420.17;84632;1327;22579;-74
2022/04/19 09:41:38;;;;;;;;;;;;;;;6.69;56.80;100422.65;84591;1332;22583;-74
2022/04/19 09:43:47;;;;;;;;;;;;;;;6.70;57.10;100426.44;84634;1329;22678;-73
2022/04/19 09:45:58;;;;;;;;;;;;;;;6.72;56.67;100428.48;84546;1332;22645;-72
2022/04/19 09:48:07;;;;;;;;;;;;;;;6.76;56.70;100429.27;84557;1333;22832;-80
2022/04/19 09:50:16;;;;;;;;;;;;;;;6.77;56.44;100433.06;84489;1332;23927;-80
2022/04/19 09:52:48;;;;;;;;;;;;;;;6.77;56.54;100433.40;84608;1333;24332;-81
2022/04/19 09:55:04;;;;;;;;;;;;;;;6.75;55.92;100439.52;84657;1330;22559;-79
2022/04/19 09:57:12;;;;;;;;;;;;;;;6.68;56.12;100439.66;84581;1333;22569;-79
2022/04/19 09:59:24;;;;;;;;;;;;;;;6.66;56.00;100444.05;84604;1329;22585;-80
2022/04/19 10:09:01;;;;;;;;;;;;;;;6.44;55.83;100444.81;84603;1331;22586;-78
2022/04/19 10:11:06;;;;;;;;;;;;;;;6.39;55.38;100449.09;84609;1332;22722;-81
2022/04/19 10:13:14;;;;;;;;;;;;;;;6.38;55.73;100450.85;84614;1335;22596;-75
2022/04/19 10:15:23;;;;;;;;;;;;;;;6.36;55.73;100448.45;84605;1330;25442;-74
2022/04/19 10:17:28;;;;;;;;;;;;;;;6.35;55.79;100451.58;84652;1333;22609;-79
2022/04/19 10:19:33;;;;;;;;;;;;;;;6.35;55.91;100451.75;84569;1330;24329;-75
2022/04/19 10:21:42;;;;;;;;;;;;;;;6.35;55.79;100451.59;84636;1329;23992;-78
2022/04/19 10:23:50;;;;;;;;;;;;;;;6.31;55.37;100451.34;84509;1332;22618;-81
2022/04/19 10:25:55;;;;;;;;;;;;;;;6.25;55.66;100452.83;84564;1332;26026;-81
2022/04/19 10:28:05;;;;;;;;;;;;;;;6.23;55.50;100452.18;84589;1330;22599;-80
2022/04/19 10:30:19;;;;;;;;;;;;;;;6.23;55.38;100451.30;84634;1332;22575;-75
2022/04/19 10:32:33;;;;;;;;;;;;;;;6.26;55.72;100456.81;84603;1327;22624;-75
2022/04/19 10:34:43;;;;;;;;;;;;;;;6.27;56.21;100453.31;84617;1330;23989;-75
2022/04/19 10:36:54;;;;;;;;;;;;;;;6.33;55.88;100456.66;84588;1331;24263;-79
2022/04/19 10:39:20;;;;;;;;;;;;;;;6.35;55.62;100459.39;84641;1330;25337;-80
2022/04/19 10:41:47;;;;;;;;;;;;;;;6.37;55.87;100457.79;84632;1329;24381;-83
2022/04/19 10:44:29;;;;;;;;;;;;;;;6.44;55.32;100459.21;84443;1333;22643;-74
2022/04/19 10:46:39;;;;;;;;;;;;;;;6.53;55.42;100456.61;84683;1330;22607;-75
2022/04/19 10:49:25;;;;;;;;;;;;;;;6.58;54.92;100454.60;84698;1330;22582;-81
2022/04/19 10:51:33;;;;;;;;;;;;;;;6.63;54.64;100452.77;84454;1336;22618;-82
2022/04/19 10:53:38;;;;;;;;;;;;;;;6.66;54.65;100454.63;84704;1330;22578;-79
2022/04/19 10:56:01;;;;;;;;;;;;;;;6.70;54.82;100449.67;84681;1330;24231;-80
2022/04/19 10:58:17;;;;;;;;;;;;;;;6.76;54.97;100450.59;84595;1331;22588;-74
2022/04/19 11:00:25;;;;;;;;;;;;;;;6.84;54.94;100449.91;84712;1330;24246;-74
2022/04/19 11:02:36;;;;;;;;;;;;;;;6.94;54.86;100451.42;84313;1328;1003184;-74
2022/04/19 11:04:42;;;;;;;;;;;;;;;7.02;54.45;100451.26;84663;1329;23983;-75
2022/04/19 11:06:47;;;;;;;;;;;;;;;7.11;54.29;100456.59;84727;1330;22577;-75
2022/04/19 11:08:56;;;;;;;;;;;;;;;7.19;54.35;100456.40;84691;1330;26022;-74
2022/04/19 11:11:24;;;;;;;;;;;;;;;7.27;53.50;100460.92;84718;1329;22624;-86
2022/04/19 11:13:31;;;;;;;;;;;;;;;7.29;53.24;100458.27;84593;1333;22753;-76
2022/04/19 11:15:39;;;;;;;;;;;;;;;7.33;53.30;100458.52;84680;1329;25265;-75
2022/04/19 11:17:44;;;;;;;;;;;;;;;7.43;53.14;100455.69;84689;1330;22605;-81
2022/04/19 11:19:53;;;;;;;;;;;;;;;7.52;53.13;100457.38;84683;1331;22611;-80
2022/04/19 11:22:00;;;;;;;;;;;;;;;7.59;53.04;100453.05;83289;1325;1003940;-75
2022/04/19 11:24:08;;;;;;;;;;;;;;;7.65;52.74;100452.55;84731;1329;23952;-73
2022/04/19 11:26:45;;;;;;;;;;;;;;;7.74;52.63;100453.34;84694;1329;22621;-76
2022/04/19 11:29:20;;;;;;;;;;;;;;;7.80;52.21;100455.13;84722;1329;22651;-74
2022/04/19 11:31:29;;;;;;;;;;;;;;;7.85;51.79;100450.13;84697;1333;25372;-78
2022/04/19 11:33:35;;;;;;;;;;;;;;;7.93;51.74;100449.58;84729;1329;24167;-80
2022/04/19 11:35:43;;;;;;;;;;;;;;;8.07;51.83;100449.75;84725;1329;22811;-75
2022/04/19 11:37:48;;;;;;;;;;;;;;;8.26;52.03;100441.05;84604;1334;25527;-84
2022/04/19 11:47:09;;;;;;;;;;;;;;;9.09;50.71;100444.42;84692;1330;24119;-82